createdAt,value
2018-08-20T00:00:30.287Z,99.99
2018-08-20T00:01:30.304Z,99.99
2018-08-20T00:02:30.272Z,99.99
2018-08-20T00:03:30.269Z,99.99
2018-08-20T00:04:30.228Z,99.99
2018-08-20T00:05:30.237Z,99.99
2018-08-20T00:06:30.199Z,99.99
2018-08-20T00:07:30.186Z,99.99
2018-08-20T00:08:30.165Z,99.99
2018-08-20T00:09:30.157Z,99.99
2018-08-20T00:10:30.138Z,99.99
2018-08-20T00:11:30.123Z,99.99
2018-08-20T00:12:30.100Z,99.99
2018-08-20T00:13:30.090Z,99.99
2018-08-20T00:14:30.074Z,99.99
2018-08-20T00:15:30.048Z,99.99
2018-08-20T00:16:30.054Z,99.99
2018-08-20T00:17:30.028Z,99.99
2018-08-20T00:18:30.007Z,99.99
2018-08-20T00:19:29.987Z,99.99
2018-08-20T00:20:29.969Z,99.99
2018-08-20T00:21:29.965Z,99.99
2018-08-20T00:22:29.965Z,99.99
2018-08-20T00:23:29.993Z,99.99
2018-08-20T00:24:29.919Z,99.99
2018-08-20T00:25:29.926Z,99.99
2018-08-20T00:26:29.882Z,99.99
2018-08-20T00:27:29.870Z,99.99
2018-08-20T00:28:29.890Z,99.99
2018-08-20T00:29:29.830Z,99.99
2018-08-20T00:30:29.806Z,99.99
2018-08-20T00:31:29.803Z,99.99
2018-08-20T00:32:29.783Z,99.99
2018-08-20T00:33:29.767Z,99.99
2018-08-20T00:34:29.761Z,99.99
2018-08-20T00:35:29.727Z,99.99
2018-08-20T00:36:29.706Z,99.99
2018-08-20T00:37:29.710Z,99.99
2018-08-20T00:38:29.713Z,99.99
2018-08-20T00:39:29.679Z,99.99
2018-08-20T00:40:29.651Z,99.99
2018-08-20T00:41:29.645Z,99.99
2018-08-20T00:42:29.623Z,99.99
2018-08-20T00:43:29.645Z,99.99
2018-08-20T00:44:29.595Z,99.99
2018-08-20T00:45:29.565Z,99.99
2018-08-20T00:46:29.559Z,99.99
2018-08-20T00:47:29.537Z,99.99
2018-08-20T00:48:29.517Z,99.99
2018-08-20T00:49:29.514Z,99.99
2018-08-20T00:50:29.498Z,99.99
2018-08-20T00:51:29.498Z,99.99
2018-08-20T00:52:29.452Z,99.99
2018-08-20T00:53:29.455Z,99.99
2018-08-20T00:54:29.430Z,99.99
2018-08-20T00:55:29.405Z,99.99
2018-08-20T00:56:29.446Z,99.99
2018-08-20T00:57:29.376Z,99.99
2018-08-20T00:58:29.408Z,99.99
2018-08-20T00:59:29.350Z,99.99
2018-08-20T01:00:29.335Z,99.99
2018-08-20T01:01:29.312Z,99.99
2018-08-20T01:02:29.387Z,99.99
2018-08-20T01:03:29.305Z,99.99
2018-08-20T01:04:29.289Z,99.99
2018-08-20T01:05:29.244Z,99.99
2018-08-20T01:06:29.244Z,99.99
2018-08-20T01:07:29.222Z,99.99
2018-08-20T01:08:29.205Z,99.99
2018-08-20T01:09:29.190Z,99.99
2018-08-20T01:10:29.174Z,99.99
2018-08-20T01:11:29.180Z,99.99
2018-08-20T01:12:29.164Z,99.99
2018-08-20T01:13:29.133Z,99.99
2018-08-20T01:14:29.104Z,99.99
2018-08-20T01:15:29.135Z,99.99
2018-08-20T01:16:29.082Z,99.99
2018-08-20T01:17:29.058Z,99.99
2018-08-20T01:18:29.039Z,99.99
2018-08-20T01:19:29.036Z,99.99
2018-08-20T01:20:29.017Z,99.99
2018-08-20T01:21:28.991Z,99.99
2018-08-20T01:22:28.978Z,99.99
2018-08-20T01:23:28.975Z,99.99
2018-08-20T01:24:28.978Z,99.99
2018-08-20T01:25:28.930Z,99.99
2018-08-20T01:26:28.906Z,99.99
2018-08-20T01:27:28.895Z,99.99
2018-08-20T01:28:28.909Z,99.99
2018-08-20T01:29:28.889Z,99.99
2018-08-20T01:30:28.846Z,99.99
2018-08-20T01:31:28.829Z,99.99
2018-08-20T01:32:28.876Z,99.99
2018-08-20T01:33:28.798Z,99.99
2018-08-20T01:34:28.782Z,99.99
2018-08-20T01:35:28.762Z,99.99
2018-08-20T01:36:28.749Z,99.99
2018-08-20T01:37:28.743Z,99.99
2018-08-20T01:38:28.717Z,99.99
2018-08-20T01:39:28.698Z,99.99
2018-08-20T01:40:28.686Z,99.99
2018-08-20T01:41:28.666Z,99.99
2018-08-20T01:42:28.685Z,99.99
2018-08-20T01:43:28.638Z,99.99
2018-08-20T01:44:28.614Z,99.99
2018-08-20T01:45:28.607Z,99.99
2018-08-20T01:46:28.597Z,99.99
2018-08-20T01:47:28.580Z,99.99
2018-08-20T01:48:28.566Z,99.99
2018-08-20T01:49:28.552Z,99.99
2018-08-20T01:50:28.545Z,99.99
2018-08-20T01:51:28.533Z,99.99
2018-08-20T01:52:28.529Z,99.99
2018-08-20T01:53:28.462Z,99.99
2018-08-20T01:54:28.475Z,99.99
2018-08-20T01:55:28.459Z,99.99
2018-08-20T01:56:28.440Z,99.99
2018-08-20T01:57:28.421Z,99.99
2018-08-20T01:58:28.407Z,99.99
2018-08-20T01:59:28.376Z,99.99
2018-08-20T02:00:28.372Z,99.99
2018-08-20T02:01:29.084Z,99.99
2018-08-20T02:02:28.320Z,99.99
2018-08-20T02:03:28.309Z,99.99
2018-08-20T02:04:28.287Z,99.99
2018-08-20T02:05:28.284Z,99.99
2018-08-20T02:06:28.255Z,99.99
2018-08-20T02:07:28.262Z,99.99
2018-08-20T02:08:28.235Z,99.99
2018-08-20T02:09:28.204Z,99.99
2018-08-20T02:10:29.078Z,99.99
2018-08-20T02:11:28.168Z,99.99
2018-08-20T02:12:28.152Z,99.99
2018-08-20T02:13:28.146Z,99.99
2018-08-20T02:14:28.134Z,99.99
2018-08-20T02:15:28.111Z,99.99
2018-08-20T02:16:28.098Z,99.99
2018-08-20T02:17:28.089Z,99.99
2018-08-20T02:18:28.064Z,99.99
2018-08-20T02:19:28.064Z,99.99
2018-08-20T02:20:28.042Z,99.99
2018-08-20T02:21:28.013Z,99.99
2018-08-20T02:22:27.996Z,99.99
2018-08-20T02:23:27.990Z,99.99
2018-08-20T02:24:27.965Z,99.99
2018-08-20T02:25:27.953Z,99.99
2018-08-20T02:26:27.946Z,99.99
2018-08-20T02:27:27.914Z,99.99
2018-08-20T02:28:27.901Z,99.99
2018-08-20T02:29:27.910Z,99.99
2018-08-20T02:30:27.860Z,99.99
2018-08-20T02:31:27.872Z,99.99
2018-08-20T02:32:27.850Z,99.99
2018-08-20T02:33:27.806Z,99.99
2018-08-20T02:34:27.796Z,99.99
2018-08-20T02:35:27.784Z,99.99
2018-08-20T02:36:27.783Z,99.99
2018-08-20T02:37:27.742Z,99.99
2018-08-20T02:38:27.733Z,99.99
2018-08-20T02:39:27.713Z,99.99
2018-08-20T02:40:27.707Z,99.99
2018-08-20T02:41:27.681Z,99.99
2018-08-20T02:42:27.668Z,99.99
2018-08-20T02:43:27.651Z,99.99
2018-08-20T02:44:27.637Z,99.99
2018-08-20T02:45:27.632Z,99.99
2018-08-20T02:46:27.600Z,99.99
2018-08-20T02:47:27.588Z,99.99
2018-08-20T02:48:27.581Z,99.99
2018-08-20T02:49:27.555Z,99.99
2018-08-20T02:50:27.552Z,99.99
2018-08-20T02:51:27.555Z,99.99
2018-08-20T02:52:27.498Z,99.99
2018-08-20T02:53:27.485Z,99.99
2018-08-20T02:54:27.475Z,99.99
2018-08-20T02:55:27.455Z,99.99
2018-08-20T02:56:27.445Z,99.99
2018-08-20T02:57:27.439Z,99.99
2018-08-20T02:58:27.445Z,99.99
2018-08-20T02:59:27.433Z,99.99
2018-08-20T03:00:27.394Z,99.99
2018-08-20T03:01:27.359Z,99.99
2018-08-20T03:02:27.337Z,99.99
2018-08-20T03:03:27.352Z,99.99
2018-08-20T03:04:27.307Z,99.99
2018-08-20T03:05:27.313Z,99.99
2018-08-20T03:06:27.276Z,99.99
2018-08-20T03:07:27.249Z,99.99
2018-08-20T03:08:27.233Z,99.99
2018-08-20T03:09:27.236Z,99.99
2018-08-20T03:10:27.230Z,99.99
2018-08-20T03:11:27.178Z,99.99
2018-08-20T03:12:27.191Z,99.99
2018-08-20T03:13:27.178Z,99.99
2018-08-20T03:14:27.150Z,99.99
2018-08-20T03:15:27.117Z,99.99
2018-08-20T03:16:27.152Z,99.99
2018-08-20T03:17:27.138Z,99.99
2018-08-20T03:18:27.071Z,99.99
2018-08-20T03:19:27.066Z,99.99
2018-08-20T03:20:27.034Z,99.99
2018-08-20T03:21:27.028Z,99.99
2018-08-20T03:22:26.996Z,99.99
2018-08-20T03:23:27.021Z,99.99
2018-08-20T03:24:26.989Z,99.99
2018-08-20T03:25:26.955Z,99.99
2018-08-20T03:26:26.938Z,99.99
2018-08-20T03:27:27.607Z,99.99
2018-08-20T03:28:26.913Z,99.99
2018-08-20T03:29:26.896Z,99.99
2018-08-20T03:30:26.871Z,99.99
2018-08-20T03:31:26.855Z,99.99
2018-08-20T03:32:26.832Z,99.99
2018-08-20T03:33:26.823Z,99.99
2018-08-20T03:34:26.810Z,99.99
2018-08-20T03:35:26.794Z,99.99
2018-08-20T03:36:26.759Z,99.99
2018-08-20T03:37:26.762Z,99.99
2018-08-20T03:38:26.733Z,99.99
2018-08-20T03:39:27.616Z,99.99
2018-08-20T03:40:26.708Z,99.99
2018-08-20T03:41:26.708Z,99.99
2018-08-20T03:42:26.675Z,99.99
2018-08-20T03:43:26.727Z,99.99
2018-08-20T03:44:26.647Z,99.99
2018-08-20T03:45:26.631Z,99.99
2018-08-20T03:46:26.637Z,99.99
2018-08-20T03:47:26.627Z,99.99
2018-08-20T03:48:26.584Z,99.99
2018-08-20T03:49:26.554Z,99.99
2018-08-20T03:50:26.576Z,99.99
2018-08-20T03:51:26.535Z,99.99
2018-08-20T03:52:26.503Z,99.99
2018-08-20T03:53:26.490Z,99.99
2018-08-20T03:54:26.489Z,99.99
2018-08-20T03:55:26.450Z,99.99
2018-08-20T03:56:26.437Z,99.99
2018-08-20T03:57:26.440Z,99.99
2018-08-20T03:58:26.412Z,99.99
2018-08-20T03:59:26.417Z,99.99
2018-08-20T04:00:26.423Z,99.99
2018-08-20T04:01:26.408Z,99.99
2018-08-20T04:02:26.350Z,99.99
2018-08-20T04:03:26.325Z,99.99
2018-08-20T04:04:26.306Z,99.99
2018-08-20T04:05:26.324Z,99.99
2018-08-20T04:06:26.312Z,99.99
2018-08-20T04:07:26.289Z,99.99
2018-08-20T04:08:26.264Z,99.99
2018-08-20T04:09:26.239Z,99.99
2018-08-20T04:10:26.276Z,99.99
2018-08-20T04:11:26.214Z,99.99
2018-08-20T04:12:26.172Z,99.99
2018-08-20T04:13:26.182Z,99.99
2018-08-20T04:14:26.124Z,99.99
2018-08-20T04:15:26.114Z,99.99
2018-08-20T04:16:26.099Z,99.99
2018-08-20T04:17:26.089Z,99.99
2018-08-20T04:18:26.095Z,99.99
2018-08-20T04:19:26.086Z,99.99
2018-08-20T04:20:26.076Z,99.99
2018-08-20T04:21:26.019Z,99.99
2018-08-20T04:22:26.025Z,99.99
2018-08-20T04:23:25.990Z,99.99
2018-08-20T04:24:25.977Z,99.99
2018-08-20T04:25:25.997Z,99.99
2018-08-20T04:26:25.935Z,99.99
2018-08-20T04:27:25.907Z,99.99
2018-08-20T04:28:25.895Z,99.99
2018-08-20T04:29:25.897Z,99.99
2018-08-20T04:30:25.899Z,99.99
2018-08-20T04:31:25.881Z,99.99
2018-08-20T04:32:25.883Z,99.99
2018-08-20T04:33:25.874Z,99.99
2018-08-20T04:34:25.828Z,99.99
2018-08-20T04:35:25.846Z,99.99
2018-08-20T04:36:25.779Z,99.99
2018-08-20T04:37:25.756Z,99.99
2018-08-20T04:38:25.735Z,99.99
2018-08-20T04:39:25.728Z,99.99
2018-08-20T04:40:25.756Z,99.99
2018-08-20T04:41:25.693Z,99.99
2018-08-20T04:42:25.734Z,99.99
2018-08-20T04:43:25.665Z,99.99
2018-08-20T04:44:25.664Z,99.99
2018-08-20T04:45:25.624Z,99.99
2018-08-20T04:46:25.617Z,99.99
2018-08-20T04:47:25.631Z,99.99
2018-08-20T04:48:25.595Z,99.99
2018-08-20T04:49:25.550Z,99.99
2018-08-20T04:50:25.655Z,99.99
2018-08-20T04:51:25.637Z,99.99
2018-08-20T04:52:25.557Z,99.99
2018-08-20T04:53:25.518Z,99.99
2018-08-20T04:54:25.473Z,99.99
2018-08-20T04:55:25.502Z,99.99
2018-08-20T04:56:25.419Z,99.99
2018-08-20T04:57:25.445Z,99.99
2018-08-20T04:58:25.417Z,99.99
2018-08-20T04:59:25.382Z,99.99
2018-08-20T05:00:25.353Z,99.99
2018-08-20T05:01:25.388Z,99.99
2018-08-20T05:02:25.327Z,99.99
2018-08-20T05:03:25.327Z,99.99
2018-08-20T05:04:25.330Z,99.99
2018-08-20T05:05:25.304Z,99.99
2018-08-20T05:06:25.289Z,99.99
2018-08-20T05:07:25.270Z,99.99
2018-08-20T05:08:25.261Z,99.99
2018-08-20T05:09:25.248Z,99.99
2018-08-20T05:10:25.231Z,99.99
2018-08-20T05:11:25.187Z,99.99
2018-08-20T05:12:25.163Z,99.99
2018-08-20T05:13:25.172Z,99.99
2018-08-20T05:14:25.121Z,99.99
2018-08-20T05:15:25.109Z,99.99
2018-08-20T05:16:25.095Z,99.99
2018-08-20T05:17:25.086Z,99.99
2018-08-20T05:18:25.065Z,99.99
2018-08-20T05:19:25.061Z,99.99
2018-08-20T05:20:25.093Z,99.99
2018-08-20T05:21:25.008Z,99.99
2018-08-20T05:22:24.997Z,99.99
2018-08-20T05:23:24.975Z,99.99
2018-08-20T05:24:24.994Z,99.99
2018-08-20T05:25:25.004Z,99.99
2018-08-20T05:26:24.930Z,99.99
2018-08-20T05:27:24.911Z,99.99
2018-08-20T05:28:24.902Z,99.99
2018-08-20T05:29:24.931Z,99.99
2018-08-20T05:30:24.901Z,99.99
2018-08-20T05:31:24.873Z,99.99
2018-08-20T05:32:24.870Z,99.99
2018-08-20T05:33:24.856Z,99.99
2018-08-20T05:34:24.858Z,99.99
2018-08-20T05:35:24.793Z,99.99
2018-08-20T05:36:24.779Z,99.99
2018-08-20T05:37:24.750Z,99.99
2018-08-20T05:38:24.770Z,99.99
2018-08-20T05:39:24.734Z,99.99
2018-08-20T05:40:24.750Z,99.99
2018-08-20T05:41:24.738Z,99.99
2018-08-20T05:42:24.703Z,99.99
2018-08-20T05:43:24.686Z,99.99
2018-08-20T05:44:24.702Z,99.99
2018-08-20T05:45:24.698Z,99.99
2018-08-20T05:46:24.612Z,99.99
2018-08-20T05:47:24.615Z,99.99
2018-08-20T05:48:24.618Z,99.99
2018-08-20T05:49:24.612Z,99.99
2018-08-20T05:50:24.542Z,99.99
2018-08-20T05:51:24.526Z,99.99
2018-08-20T05:52:24.581Z,99.99
2018-08-20T05:53:24.513Z,99.99
2018-08-20T05:54:24.516Z,99.99
2018-08-20T05:55:24.507Z,99.99
2018-08-20T05:56:24.452Z,99.99
2018-08-20T05:57:24.475Z,99.99
2018-08-20T05:58:24.450Z,99.99
2018-08-20T05:59:24.413Z,99.99
2018-08-20T06:00:24.397Z,99.99
2018-08-20T06:01:24.401Z,99.99
2018-08-20T06:02:24.359Z,99.99
2018-08-20T06:03:24.381Z,99.99
2018-08-20T06:04:24.359Z,99.99
2018-08-20T06:05:24.325Z,99.99
2018-08-20T06:06:24.421Z,99.99
2018-08-20T06:07:24.368Z,99.99
2018-08-20T06:08:24.273Z,99.99
2018-08-20T06:09:24.268Z,99.99
2018-08-20T06:10:24.260Z,99.99
2018-08-20T06:11:24.289Z,99.99
2018-08-20T06:12:24.211Z,99.99
2018-08-20T06:13:24.224Z,99.99
2018-08-20T06:14:24.189Z,99.99
2018-08-20T06:15:24.211Z,99.99
2018-08-20T06:16:24.176Z,99.99
2018-08-20T06:17:24.160Z,99.99
2018-08-20T06:18:24.122Z,99.99
2018-08-20T06:19:24.116Z,99.99
2018-08-20T06:20:24.100Z,99.99
2018-08-20T06:21:24.091Z,99.99
2018-08-20T06:22:24.099Z,99.99
2018-08-20T06:23:24.054Z,99.99
2018-08-20T06:24:24.066Z,99.99
2018-08-20T06:25:24.022Z,99.99
2018-08-20T06:26:24.008Z,99.99
2018-08-20T06:27:23.990Z,99.99
2018-08-20T06:28:23.980Z,99.99
2018-08-20T06:29:23.971Z,99.99
2018-08-20T06:30:23.977Z,99.99
2018-08-20T06:31:23.939Z,99.99
2018-08-20T06:32:23.933Z,99.99
2018-08-20T06:33:23.939Z,99.99
2018-08-20T06:34:23.945Z,99.99
2018-08-20T06:35:23.909Z,99.99
2018-08-20T06:36:23.881Z,99.99
2018-08-20T06:37:23.871Z,99.99
2018-08-20T06:38:23.843Z,99.99
2018-08-20T06:39:23.827Z,99.99
2018-08-20T06:40:23.824Z,99.88
2018-08-20T06:41:23.814Z,98.77
2018-08-20T06:42:23.796Z,99.99
2018-08-20T06:43:23.811Z,98.39
2018-08-20T06:44:23.776Z,99.88
2018-08-20T06:45:23.760Z,96.51
2018-08-20T06:46:23.751Z,97.96
2018-08-20T06:47:23.734Z,95.64
2018-08-20T06:48:23.731Z,95.64
2018-08-20T06:49:23.722Z,95.36
2018-08-20T06:50:23.705Z,97.86
2018-08-20T06:51:23.683Z,96.89
2018-08-20T06:52:23.706Z,94.73
2018-08-20T06:53:23.664Z,97.14
2018-08-20T06:54:23.675Z,95.50
2018-08-20T06:55:23.664Z,93.86
2018-08-20T06:56:23.645Z,93.96
2018-08-20T06:57:23.609Z,93.52
2018-08-20T06:58:23.639Z,94.29
2018-08-20T06:59:23.579Z,94.87
2018-08-20T07:00:23.582Z,92.65
2018-08-20T07:01:23.642Z,94.10
2018-08-20T07:02:23.552Z,90.63
2018-08-20T07:03:23.537Z,92.60
2018-08-20T07:04:23.530Z,93.95
2018-08-20T07:05:23.505Z,88.93
2018-08-20T07:06:23.546Z,91.74
2018-08-20T07:07:23.484Z,92.41
2018-08-20T07:08:23.537Z,91.54
2018-08-20T07:09:23.472Z,87.68
2018-08-20T07:10:23.514Z,90.62
2018-08-20T07:11:23.458Z,89.56
2018-08-20T07:12:23.431Z,90.05
2018-08-20T07:13:23.419Z,91.30
2018-08-20T07:14:23.418Z,93.13
2018-08-20T07:15:23.396Z,89.22
2018-08-20T07:16:23.396Z,90.47
2018-08-20T07:17:23.392Z,88.54
2018-08-20T07:18:23.361Z,86.52
2018-08-20T07:19:23.370Z,87.43
2018-08-20T07:20:23.345Z,91.87
2018-08-20T07:21:23.357Z,84.05
2018-08-20T07:22:23.339Z,83.95
2018-08-20T07:23:23.350Z,86.31
2018-08-20T07:24:23.303Z,86.11
2018-08-20T07:25:23.306Z,82.39
2018-08-20T07:26:23.271Z,82.39
2018-08-20T07:27:23.300Z,85.24
2018-08-20T07:28:23.280Z,84.75
2018-08-20T07:29:23.253Z,82.81
2018-08-20T07:30:23.240Z,83.05
2018-08-20T07:31:23.319Z,82.80
2018-08-20T07:32:23.227Z,77.47
2018-08-20T07:33:23.211Z,78.64
2018-08-20T07:34:23.200Z,80.03
2018-08-20T07:35:23.196Z,78.34
2018-08-20T07:36:23.196Z,78.34
2018-08-20T07:37:23.173Z,80.03
2018-08-20T07:38:23.170Z,79.45
2018-08-20T07:39:23.154Z,75.77
2018-08-20T07:40:23.148Z,74.74
2018-08-20T07:41:23.135Z,73.67
2018-08-20T07:42:23.131Z,74.39
2018-08-20T07:43:23.112Z,73.42
2018-08-20T07:44:23.106Z,75.01
2018-08-20T07:45:23.099Z,75.10
2018-08-20T07:46:23.093Z,73.20
2018-08-20T07:47:23.096Z,73.33
2018-08-20T07:48:23.084Z,73.72
2018-08-20T07:49:23.076Z,71.88
2018-08-20T07:50:23.062Z,72.20
2018-08-20T07:51:23.050Z,71.97
2018-08-20T07:52:23.056Z,71.78
2018-08-20T07:53:23.040Z,72.17
2018-08-20T07:54:23.027Z,71.78
2018-08-20T07:55:23.033Z,71.68
2018-08-20T07:56:23.021Z,72.69
2018-08-20T07:57:23.011Z,72.63
2018-08-20T07:58:23.002Z,72.82
2018-08-20T07:59:22.995Z,70.00
2018-08-20T08:00:23.065Z,68.96
2018-08-20T08:01:22.988Z,69.06
2018-08-20T08:02:22.979Z,69.16
2018-08-20T08:03:22.973Z,70.58
2018-08-20T08:04:22.966Z,70.75
2018-08-20T08:05:22.979Z,70.75
2018-08-20T08:06:22.953Z,72.30
2018-08-20T08:07:22.956Z,71.58
2018-08-20T08:08:22.956Z,70.39
2018-08-20T08:09:22.944Z,70.97
2018-08-20T08:10:22.935Z,72.85
2018-08-20T08:11:22.931Z,74.30
2018-08-20T08:12:22.925Z,73.24
2018-08-20T08:13:22.941Z,72.00
2018-08-20T08:14:22.941Z,72.39
2018-08-20T08:15:22.912Z,73.84
2018-08-20T08:16:22.912Z,73.88
2018-08-20T08:17:22.904Z,73.43
2018-08-20T08:18:22.893Z,72.69
2018-08-20T08:19:22.889Z,70.94
2018-08-20T08:20:22.902Z,71.66
2018-08-20T08:21:22.877Z,72.92
2018-08-20T08:22:22.873Z,69.81
2018-08-20T08:23:22.883Z,68.77
2018-08-20T08:24:22.863Z,70.90
2018-08-20T08:25:22.853Z,73.24
2018-08-20T08:26:22.858Z,72.69
2018-08-20T08:27:22.857Z,72.69
2018-08-20T08:28:22.837Z,72.04
2018-08-20T08:29:22.841Z,68.74
2018-08-20T08:30:22.825Z,70.78
2018-08-20T08:31:22.831Z,69.51
2018-08-20T08:32:22.828Z,71.94
2018-08-20T08:33:22.837Z,69.13
2018-08-20T08:34:22.819Z,69.22
2018-08-20T08:35:22.816Z,69.84
2018-08-20T08:36:22.802Z,68.87
2018-08-20T08:37:22.799Z,68.38
2018-08-20T08:38:22.792Z,69.97
2018-08-20T08:39:22.787Z,68.09
2018-08-20T08:40:22.784Z,67.99
2018-08-20T08:41:22.777Z,68.67
2018-08-20T08:42:22.767Z,71.50
2018-08-20T08:43:22.792Z,70.07
2018-08-20T08:44:22.760Z,69.29
2018-08-20T08:45:22.792Z,68.26
2018-08-20T08:46:22.748Z,66.73
2018-08-20T08:47:22.743Z,67.41
2018-08-20T08:48:22.750Z,68.06
2018-08-20T08:49:22.958Z,67.57
2018-08-20T08:50:22.731Z,67.44
2018-08-20T08:51:22.757Z,66.76
2018-08-20T08:52:22.723Z,66.89
2018-08-20T08:53:22.723Z,67.99
2018-08-20T08:54:22.715Z,64.26
2018-08-20T08:55:22.702Z,65.63
2018-08-20T08:56:22.696Z,68.28
2018-08-20T08:57:22.740Z,70.03
2018-08-20T08:58:22.684Z,70.78
2018-08-20T08:59:22.693Z,71.98
2018-08-20T09:00:22.750Z,70.52
2018-08-20T09:01:22.681Z,68.12
2018-08-20T09:02:22.674Z,67.44
2018-08-20T09:03:22.666Z,68.12
2018-08-20T09:04:22.662Z,67.47
2018-08-20T09:05:22.657Z,66.69
2018-08-20T09:06:22.650Z,65.88
2018-08-20T09:07:22.647Z,68.71
2018-08-20T09:08:22.650Z,67.77
2018-08-20T09:09:22.672Z,67.18
2018-08-20T09:10:22.638Z,70.50
2018-08-20T09:11:22.622Z,67.57
2018-08-20T09:12:23.219Z,68.26
2018-08-20T09:13:22.625Z,70.33
2018-08-20T09:14:22.644Z,67.99
2018-08-20T09:15:22.622Z,68.58
2018-08-20T09:16:22.606Z,66.93
2018-08-20T09:17:22.603Z,65.26
2018-08-20T09:18:22.590Z,67.02
2018-08-20T09:19:22.593Z,68.97
2018-08-20T09:20:22.609Z,68.80
2018-08-20T09:21:22.584Z,67.64
2018-08-20T09:22:22.574Z,66.05
2018-08-20T09:23:22.593Z,67.35
2018-08-20T09:24:22.575Z,63.84
2018-08-20T09:25:22.561Z,64.65
2018-08-20T09:26:23.235Z,61.66
2018-08-20T09:27:22.555Z,64.19
2018-08-20T09:28:22.544Z,64.61
2018-08-20T09:29:22.545Z,67.54
2018-08-20T09:30:22.535Z,64.00
2018-08-20T09:31:22.538Z,61.24
2018-08-20T09:32:22.641Z,62.70
2018-08-20T09:33:22.555Z,63.87
2018-08-20T09:34:22.554Z,61.24
2018-08-20T09:35:22.524Z,60.75
2018-08-20T09:36:22.513Z,61.96
2018-08-20T09:37:22.522Z,67.25
2018-08-20T09:38:22.616Z,65.69
2018-08-20T09:39:22.507Z,63.70
2018-08-20T09:40:22.522Z,62.56
2018-08-20T09:41:22.500Z,61.88
2018-08-20T09:42:22.517Z,61.98
2018-08-20T09:43:22.487Z,61.43
2018-08-20T09:44:22.490Z,63.41
2018-08-20T09:45:22.481Z,62.40
2018-08-20T09:46:22.484Z,63.09
2018-08-20T09:47:22.472Z,63.18
2018-08-20T09:48:22.477Z,63.38
2018-08-20T09:49:22.474Z,62.66
2018-08-20T09:50:22.516Z,62.24
2018-08-20T09:51:22.471Z,60.46
2018-08-20T09:52:22.464Z,63.06
2018-08-20T09:53:22.491Z,65.69
2018-08-20T09:54:22.461Z,67.44
2018-08-20T09:55:22.454Z,65.40
2018-08-20T09:56:22.481Z,66.66
2018-08-20T09:57:22.445Z,65.98
2018-08-20T09:58:22.445Z,62.99
2018-08-20T09:59:22.442Z,64.91
2018-08-20T10:00:22.438Z,68.09
2018-08-20T10:01:22.459Z,68.90
2018-08-20T10:02:22.426Z,68.51
2018-08-20T10:03:22.429Z,68.51
2018-08-20T10:04:22.423Z,68.12
2018-08-20T10:05:22.419Z,67.25
2018-08-20T10:06:22.420Z,69.20
2018-08-20T10:07:22.413Z,67.73
2018-08-20T10:08:22.416Z,66.83
2018-08-20T10:09:22.429Z,66.44
2018-08-20T10:10:22.410Z,68.74
2018-08-20T10:11:22.397Z,67.08
2018-08-20T10:12:22.388Z,69.51
2018-08-20T10:13:22.384Z,70.62
2018-08-20T10:14:22.388Z,68.48
2018-08-20T10:15:22.381Z,69.94
2018-08-20T10:16:22.372Z,68.67
2018-08-20T10:17:22.378Z,68.84
2018-08-20T10:18:22.404Z,69.32
2018-08-20T10:19:22.356Z,70.39
2018-08-20T10:20:22.362Z,69.81
2018-08-20T10:21:22.350Z,69.51
2018-08-20T10:22:22.343Z,69.94
2018-08-20T10:23:22.343Z,67.70
2018-08-20T10:24:22.333Z,67.90
2018-08-20T10:25:22.322Z,69.26
2018-08-20T10:26:22.334Z,67.76
2018-08-20T10:27:22.327Z,69.35
2018-08-20T10:28:22.324Z,68.77
2018-08-20T10:29:22.320Z,69.45
2018-08-20T10:30:22.307Z,69.35
2018-08-20T10:31:22.299Z,68.87
2018-08-20T10:32:22.305Z,69.55
2018-08-20T10:33:22.292Z,68.77
2018-08-20T10:34:22.289Z,67.02
2018-08-20T10:35:22.282Z,70.07
2018-08-20T10:36:22.282Z,70.65
2018-08-20T10:37:22.279Z,68.71
2018-08-20T10:38:22.263Z,66.17
2018-08-20T10:39:22.270Z,67.25
2018-08-20T10:40:22.256Z,68.26
2018-08-20T10:41:22.262Z,67.96
2018-08-20T10:42:22.249Z,68.58
2018-08-20T10:43:22.250Z,65.66
2018-08-20T10:44:22.273Z,65.36
2018-08-20T10:45:22.271Z,66.34
2018-08-20T10:46:22.257Z,65.17
2018-08-20T10:47:22.262Z,65.95
2018-08-20T10:48:22.282Z,65.14
2018-08-20T10:49:22.221Z,66.89
2018-08-20T10:50:22.273Z,66.60
2018-08-20T10:51:22.224Z,64.45
2018-08-20T10:52:22.237Z,66.17
2018-08-20T10:53:22.216Z,65.98
2018-08-20T10:54:22.195Z,65.95
2018-08-20T10:55:22.208Z,65.75
2018-08-20T10:56:22.334Z,67.11
2018-08-20T10:57:22.211Z,67.28
2018-08-20T10:58:22.283Z,69.35
2018-08-20T10:59:22.232Z,68.96
2018-08-20T11:00:22.224Z,66.63
2018-08-20T11:01:22.318Z,69.68
2018-08-20T11:02:22.234Z,67.35
2018-08-20T11:03:22.173Z,69.10
2018-08-20T11:04:22.173Z,69.03
2018-08-20T11:05:22.143Z,68.61
2018-08-20T11:06:22.202Z,67.73
2018-08-20T11:07:22.171Z,67.35
2018-08-20T11:08:22.283Z,68.35
2018-08-20T11:09:22.273Z,67.80
2018-08-20T11:10:22.177Z,66.24
2018-08-20T11:11:22.151Z,64.29
2018-08-20T11:12:22.129Z,65.88
2018-08-20T11:13:22.135Z,66.05
2018-08-20T11:14:22.119Z,67.32
2018-08-20T11:15:22.132Z,64.45
2018-08-20T11:16:22.161Z,66.50
2018-08-20T11:17:22.155Z,68.55
2018-08-20T11:18:22.152Z,67.28
2018-08-20T11:19:22.096Z,67.28
2018-08-20T11:20:22.148Z,66.89
2018-08-20T11:21:22.103Z,65.04
2018-08-20T11:22:22.209Z,66.99
2018-08-20T11:23:22.103Z,68.16
2018-08-20T11:24:22.152Z,66.50
2018-08-20T11:25:22.081Z,67.18
2018-08-20T11:26:22.112Z,69.23
2018-08-20T11:27:22.164Z,67.83
2018-08-20T11:28:22.054Z,66.96
2018-08-20T11:29:22.048Z,67.25
2018-08-20T11:30:22.130Z,66.17
2018-08-20T11:31:22.058Z,67.90
2018-08-20T11:32:22.039Z,69.74
2018-08-20T11:33:22.045Z,68.48
2018-08-20T11:34:22.023Z,67.80
2018-08-20T11:35:22.026Z,69.48
2018-08-20T11:36:22.023Z,69.29
2018-08-20T11:37:22.004Z,68.22
2018-08-20T11:38:22.026Z,67.86
2018-08-20T11:39:22.003Z,68.93
2018-08-20T11:40:22.126Z,67.32
2018-08-20T11:41:22.107Z,64.13
2018-08-20T11:42:22.017Z,64.62
2018-08-20T11:43:22.030Z,65.59
2018-08-20T11:44:22.004Z,65.26
2018-08-20T11:45:21.988Z,64.23
2018-08-20T11:46:21.994Z,65.01
2018-08-20T11:47:21.981Z,65.30
2018-08-20T11:48:22.018Z,65.17
2018-08-20T11:49:21.966Z,63.32
2018-08-20T11:50:21.966Z,64.17
2018-08-20T11:51:22.042Z,64.42
2018-08-20T11:52:21.994Z,66.08
2018-08-20T11:53:21.956Z,65.01
2018-08-20T11:54:21.981Z,67.05
2018-08-20T11:55:21.988Z,66.73
2018-08-20T11:56:21.943Z,66.11
2018-08-20T11:57:21.942Z,66.83
2018-08-20T11:58:21.933Z,67.47
2018-08-20T11:59:21.920Z,64.45
2018-08-20T12:00:21.917Z,67.44
2018-08-20T12:01:21.943Z,66.86
2018-08-20T12:02:21.991Z,66.05
2018-08-20T12:03:21.914Z,66.63
2018-08-20T12:04:21.978Z,68.77
2018-08-20T12:05:21.943Z,66.24
2018-08-20T12:06:21.946Z,67.60
2018-08-20T12:07:22.040Z,69.06
2018-08-20T12:08:21.952Z,66.79
2018-08-20T12:09:21.879Z,64.39
2018-08-20T12:10:21.881Z,65.59
2018-08-20T12:11:21.879Z,62.60
2018-08-20T12:12:21.907Z,63.06
2018-08-20T12:13:21.888Z,64.19
2018-08-20T12:14:21.875Z,62.92
2018-08-20T12:15:21.862Z,62.79
2018-08-20T12:16:21.863Z,62.63
2018-08-20T12:17:21.990Z,61.72
2018-08-20T12:18:21.888Z,60.61
2018-08-20T12:19:21.859Z,60.68
2018-08-20T12:20:21.894Z,62.60
2018-08-20T12:21:21.868Z,62.60
2018-08-20T12:22:21.854Z,62.86
2018-08-20T12:23:21.873Z,63.28
2018-08-20T12:24:21.837Z,62.63
2018-08-20T12:25:21.864Z,65.66
2018-08-20T12:26:21.933Z,62.50
2018-08-20T12:27:21.837Z,62.38
2018-08-20T12:28:21.883Z,62.83
2018-08-20T12:29:21.837Z,64.20
2018-08-20T12:30:21.884Z,63.15
2018-08-20T12:31:21.866Z,63.70
2018-08-20T12:32:21.824Z,62.89
2018-08-20T12:33:21.828Z,63.12
2018-08-20T12:34:21.893Z,58.78
2018-08-20T12:35:21.824Z,56.79
2018-08-20T12:36:21.821Z,58.72
2018-08-20T12:37:21.821Z,60.52
2018-08-20T12:38:21.830Z,60.06
2018-08-20T12:39:21.811Z,60.20
2018-08-20T12:40:21.843Z,64.36
2018-08-20T12:41:21.836Z,63.29
2018-08-20T12:42:21.811Z,63.97
2018-08-20T12:43:21.807Z,63.26
2018-08-20T12:44:21.824Z,65.69
2018-08-20T12:45:21.859Z,65.69
2018-08-20T12:46:21.860Z,63.39
2018-08-20T12:47:21.843Z,62.12
2018-08-20T12:48:21.791Z,60.68
2018-08-20T12:49:21.850Z,65.36
2018-08-20T12:50:22.325Z,63.60
2018-08-20T12:51:21.802Z,62.59
2018-08-20T12:52:21.792Z,57.31